Wednesday, April 25, 2018, 5:06 AM EDT
Back to Local

KTTN, Trenton Mercer County Airport

Location: Trenton, NJ, United States Lat: 40.283
Local Time: 5:06 AM EDT ( 9:06 GMT) Lon: -74.817
Time Zone: US/Eastern Elev: 213 ft

Show me the last for .
Show Decoded

2018-04-25 04:31 METAR KTTN 250831Z AUTO 10010KT 4SM -RA BR OVC005 13/12 A2993 RMK AO2 CIG
                 004V008 P0003 T01280122 =
2018-04-25 03:53 METAR KTTN 250753Z AUTO 11010KT 2 1/2SM -RA BR OVC005 13/12 A2995 RMK AO2
                 RAE24B32 SLP136 P0002 T01280117 =
2018-04-25 03:28 METAR KTTN 250728Z AUTO 09009KT 10SM BKN006 OVC012 13/12 A2996 RMK AO2 RAE24 CIG
                 003V009 P0001 T01280117 =
2018-04-25 03:08 METAR KTTN 250708Z AUTO 10008KT 4SM -RA BR OVC004 13/12 A2997 RMK AO2 CIG
                 002V009 P0000 T01280117 =
2018-04-25 02:53 METAR KTTN 250653Z AUTO 10008KT 2 1/2SM -RA BR OVC004 12/12 A2998 RMK AO2 CIG
                 002V008 SLP146 P0005 T01220117 =
2018-04-25 02:12 METAR KTTN 250612Z AUTO 10007KT 4SM -RA BR OVC004 12/12 A3001 RMK AO2 CIG
                 003V009 P0001 T01220117 =
2018-04-25 01:53 METAR KTTN 250553Z AUTO 10008KT 3SM -RA BR OVC005 12/11 A3003 RMK AO2 CIG
                 004V008 SLP162 P0004 60020 T01220111 10139 20117 58025 =
2018-04-25 00:53 METAR KTTN 250453Z AUTO 09007KT 3SM RA BR BKN005 BKN021 OVC042 12/11 A3006 RMK
                 AO2 SLP174 P0007 T01170111 401830039 =
2018-04-25 00:44 METAR KTTN 250444Z AUTO 09009KT 4SM -RA BR BKN005 OVC040 12/11 A3007 RMK AO2
                 P0006 T01170111 =
2018-04-25 00:42 METAR KTTN 250442Z AUTO 09009KT 4SM -RA BR SCT007 BKN038 OVC046 12/11 A3007 RMK
                 AO2 P0005 T01170111 =
2018-04-25 00:34 METAR KTTN 250434Z AUTO 09008KT 4SM -RA BR SCT005 BKN020 OVC046 12/11 A3007 RMK
                 AO2 P0005 T01170111 =
2018-04-25 00:25 METAR KTTN 250425Z AUTO 09009KT 4SM -RA BR BKN007 BKN020 OVC048 12/11 A3008 RMK
                 AO2 P0004 T01170111 =
2018-04-25 00:20 METAR KTTN 250420Z AUTO 09010KT 4SM RA BR SCT008 BKN048 OVC070 12/11 A3008 RMK
                 AO2 P0004 T01170111 =
2018-04-24 23:53 METAR KTTN 250353Z AUTO 09008KT 3SM RA BR BKN009 BKN019 OVC033 12/11 A3010 RMK
                 AO2 SLP186 P0006 T01170111 =
2018-04-24 23:51 METAR KTTN 250351Z AUTO 09008KT 3SM RA BR BKN009 BKN019 OVC033 12/11 A3010 RMK
                 AO2 P0006 =
2018-04-24 23:32 METAR KTTN 250332Z AUTO 10010KT 6SM -RA BR FEW007 BKN013 OVC033 12/11 A3011 RMK
                 AO2 P0002 T01220106 =
2018-04-24 22:53 METAR KTTN 250253Z AUTO 08007KT 6SM RA BR BKN014 OVC031 12/10 A3013 RMK AO2
                 RAB11 SLP196 P0003 60003 T01220100 58017 =
2018-04-24 21:53 METAR KTTN 250153Z 09011KT 10SM FEW044 BKN070 OVC120 13/08 A3015 RMK AO2 SLP204
                 T01330083 =
2018-04-24 20:53 METAR KTTN 250053Z 09008KT 10SM SCT032 SCT046 BKN055 13/07 A3017 RMK AO2 SLP211
                 T01330072 =
2018-04-24 19:53 METAR KTTN 242353Z 10011KT 10SM BKN043 BKN050 OVC065 14/07 A3018 RMK AO2 SLP213
                 T01390072 10178 20139 56012 =
2018-04-24 18:53 METAR KTTN 242253Z 10010KT 10SM SCT041 BKN060 14/07 A3019 RMK AO2 SLP216
                 T01440067 =
2018-04-24 17:53 METAR KTTN 242153Z 12009KT 10SM BKN044 BKN060 BKN070 16/06 A3020 RMK AO2 SLP221
                 T01560061 =
2018-04-24 16:53 METAR KTTN 242053Z 13010KT 10SM BKN047 BKN060 17/07 A3021 RMK AO2 SLP225
                 T01670067 56023 =
2018-04-24 15:53 METAR KTTN 241953Z 13014KT 10SM BKN050 BKN060 17/07 A3023 RMK AO2 SLP230
                 T01720067 =
2018-04-24 14:53 METAR KTTN 241853Z 14013G20KT 10SM SCT050 17/07 A3026 RMK AO2 SLP240 T01720067 =
2018-04-24 13:53 METAR KTTN 241753Z 15013KT 10SM BKN055 17/06 A3028 RMK AO2 SLP249 T01720056
                 10183 20094 58022 =
2018-04-24 12:53 METAR KTTN 241653Z 16012G18KT 10SM BKN055 18/05 A3030 RMK AO2 SLP256 T01780050 =
2018-04-24 11:53 METAR KTTN 241553Z 18013G20KT 10SM FEW050 18/06 A3033 RMK AO2 SLP265 T01780056 =
2018-04-24 10:53 METAR KTTN 241453Z 14015G21KT 10SM CLR 17/06 A3035 RMK AO2 SLP271 T01720061
                 58013 =
2018-04-24 09:53 METAR KTTN 241353Z 14009KT 10SM CLR 16/05 A3036 RMK AO2 SLP276 T01560050 =
2018-04-24 08:53 METAR KTTN 241253Z 14006KT 10SM OVC048 12/04 A3038 RMK AO2 SLP283 T01170039 =
2018-04-24 07:53 METAR KTTN 241153Z 11005KT 10SM SCT048 09/04 A3039 RMK AO2 SLP284 7////
                 T00940044 10094 20039 50003 =
2018-04-24 06:53 METAR KTTN 241053Z 00000KT 10SM CLR 06/02 A3039 RMK AO2 SLP285 T00610017 =
2018-04-24 05:53 METAR KTTN 240953Z 02003KT 10SM CLR 04/01 A3038 RMK AO2 SLP283 T00440006 =

Support USWX by starting your Amazon purchase here.